This is the latest recevied weather packets stored in our database for station/object N8BAP. If no packets are shown the sender has not sent any weather packets the latest 10 day(s).
| Time | Temp. | Humidity | Pressure | Rain* | Wind** | Luminosity | Snow |
|---|---|---|---|---|---|---|---|
| 1777843091 | 14.44° C | 42% | 1020.6 hPa | 0 mm | - | 41 W/m² | - |
| 1777842788 | 14.44° C | 41% | 1020.4 hPa | 0 mm | - | 63 W/m² | - |
| 1777842488 | 14.44° C | 40% | 1020.4 hPa | 0 mm | - | 79 W/m² | - |
| 1777842186 | 14.44° C | 44% | 1020.4 hPa | 0 mm | - | 74 W/m² | - |
| 1777841881 | 15° C | 39% | 1020.3 hPa | 0 mm | - | 82 W/m² | - |
| 1777841577 | 15° C | 40% | 1020.3 hPa | 0 mm | - | 137 W/m² | - |
| 1777841274 | 15° C | 39% | 1020.3 hPa | 0 mm | - | 156 W/m² | - |
| 1777840971 | 15° C | 44% | 1020.4 hPa | 0 mm | - | 166 W/m² | - |
| 1777840669 | 15° C | 41% | 1020.2 hPa | 0 mm | - | 190 W/m² | - |
| 1777840366 | 15.56° C | 37% | 1020 hPa | 0 mm | - | 204 W/m² | - |
| 1777840063 | 16.11° C | 36% | 1020.2 hPa | 0 mm | - | 215 W/m² | - |
| 1777839761 | 16.67° C | 34% | 1020.3 hPa | 0 mm | - | 550 W/m² | - |
| 1777839458 | 16.67° C | 42% | 1020.2 hPa | 0 mm | - | 582 W/m² | - |
| 1777839156 | 16.11° C | 43% | 1020.3 hPa | 0 mm | - | 544 W/m² | - |
| 1777838852 | 16.67° C | 40% | 1020.7 hPa | 0 mm | - | 594 W/m² | - |
| 1777838548 | 16.11° C | 41% | 1020.7 hPa | 0 mm | - | 606 W/m² | - |
| 1777838245 | 15.56° C | 45% | 1020.6 hPa | 0 mm | - | 659 W/m² | - |
| 1777837942 | 15° C | 43% | 1020.8 hPa | 0 mm | - | 563 W/m² | - |
| 1777837639 | 15.56° C | 40% | 1021 hPa | 0 mm | - | 285 W/m² | - |
| 1777837335 | 16.11° C | 35% | 1020.8 hPa | 0 mm | - | 561 W/m² | - |
| 1777837032 | 15.56° C | 41% | 1021 hPa | 0 mm | - | 661 W/m² | - |
| 1777836728 | 15.56° C | 37% | 1021 hPa | 0 mm | - | 646 W/m² | - |
| 1777836423 | 15.56° C | 43% | 1021.2 hPa | 0 mm | - | 656 W/m² | - |
| 1777836119 | 15.56° C | 44% | 1021.3 hPa | 0 mm | - | 652 W/m² | - |
| 1777835816 | 15.56° C | 39% | 1021.4 hPa | 0 mm | - | 678 W/m² | - |
* Rain latest hour (hover to see other rain measurements)
** Current wind speed in m/s (hover to see current wind gust speed)